Terminal Aerodrome Forecast
Issued by NWS

Home | Current Version | Previous Version | Text Only | Print | Product List | Glossary On
Versions: 1 2 3 4 5 6 7 8 9 10 11 12
000
FTUS46 KPDT 231720
TAFPSC
TAF
KPSC 231720Z 2318/2418 20008KT P6SM SCT200
     FM232000 23008KT P6SM BKN150
     FM240300 23008KT P6SM VCSH OVC120
     FM240700 22009KT P6SM BKN150
     FM241200 22009KT P6SM SKC=

USA.gov is the U.S. government's official web portal to all federal, state and local government web resources and services.